createdAt,value
2023-02-19T00:01:29.368Z,8.98
2023-02-19T00:03:59.046Z,8.97
2023-02-19T00:06:27.722Z,8.96
2023-02-19T00:08:54.898Z,8.90
2023-02-19T00:11:27.144Z,8.92
2023-02-19T00:13:55.931Z,8.91
2023-02-19T00:16:26.941Z,8.91
2023-02-19T00:18:55.335Z,8.92
2023-02-19T00:21:22.690Z,8.93
2023-02-19T00:23:57.983Z,8.92
2023-02-19T00:26:25.414Z,8.92
2023-02-19T00:28:53.843Z,8.94
2023-02-19T00:31:35.087Z,8.94
2023-02-19T00:34:05.094Z,8.94
2023-02-19T00:36:34.073Z,8.93
2023-02-19T00:39:00.828Z,8.89
2023-02-19T00:41:27.646Z,8.85
2023-02-19T00:44:02.453Z,8.81
2023-02-19T00:46:35.563Z,8.83
2023-02-19T00:49:03.534Z,8.81
2023-02-19T00:51:33.958Z,8.83
2023-02-19T00:54:00.886Z,8.87
2023-02-19T00:56:28.028Z,8.88
2023-02-19T00:58:55.148Z,8.87
2023-02-19T01:01:22.098Z,8.85
2023-02-19T01:03:49.288Z,8.88
2023-02-19T01:06:18.505Z,8.87
2023-02-19T01:08:45.699Z,8.88
2023-02-19T01:11:13.701Z,8.87
2023-02-19T01:13:41.696Z,8.84
2023-02-19T01:16:20.290Z,8.84
2023-02-19T01:18:48.185Z,8.83
2023-02-19T01:21:21.761Z,8.83
2023-02-19T01:23:50.138Z,8.80
2023-02-19T01:26:20.246Z,8.81
2023-02-19T01:28:47.269Z,8.78
2023-02-19T01:31:20.840Z,8.70
2023-02-19T01:33:53.380Z,8.73
2023-02-19T01:36:20.434Z,8.64
2023-02-19T01:38:47.488Z,8.59
2023-02-19T01:41:18.073Z,8.58
2023-02-19T01:44:26.426Z,8.52
2023-02-19T01:46:57.560Z,8.43
2023-02-19T01:49:41.941Z,8.23
2023-02-19T01:52:27.458Z,7.99
2023-02-19T01:54:56.110Z,7.77
2023-02-19T01:57:26.819Z,7.56
2023-02-19T02:00:10.282Z,7.35
2023-02-19T02:02:39.180Z,7.16
2023-02-19T02:05:10.711Z,6.98
2023-02-19T02:07:55.924Z,6.86
2023-02-19T02:10:22.962Z,6.72
2023-02-19T02:12:51.501Z,6.65
2023-02-19T02:15:19.104Z,6.60
2023-02-19T02:17:54.811Z,6.58
2023-02-19T02:20:51.510Z,6.63
2023-02-19T02:23:24.217Z,6.65
2023-02-19T02:25:59.348Z,6.73
2023-02-19T02:28:54.137Z,6.89
2023-02-19T02:31:31.745Z,7.01
2023-02-19T02:34:11.836Z,7.21
2023-02-19T02:36:43.481Z,7.31
2023-02-19T02:39:15.641Z,7.46
2023-02-19T02:41:45.889Z,7.58
2023-02-19T02:44:12.620Z,7.70
2023-02-19T02:46:44.797Z,7.82
2023-02-19T02:49:22.907Z,7.93
2023-02-19T02:51:55.028Z,7.94
2023-02-19T02:54:48.446Z,8.04
2023-02-19T02:57:17.621Z,8.04
2023-02-19T02:59:48.214Z,8.14
2023-02-19T03:02:19.303Z,8.22
2023-02-19T03:05:33.957Z,8.23
2023-02-19T03:08:03.668Z,8.28
2023-02-19T03:10:33.431Z,8.29
2023-02-19T03:13:21.426Z,8.31
2023-02-19T03:16:12.674Z,8.32
2023-02-19T03:19:02.270Z,8.31
2023-02-19T03:21:29.341Z,8.31
2023-02-19T03:24:16.004Z,8.34
2023-02-19T03:26:45.640Z,8.36
2023-02-19T03:29:23.446Z,8.37
2023-02-19T03:31:55.277Z,8.38
2023-02-19T03:34:28.607Z,8.39
2023-02-19T03:37:10.175Z,8.39
2023-02-19T03:39:44.545Z,8.40
2023-02-19T03:42:20.806Z,8.41
2023-02-19T03:45:07.970Z,8.40
2023-02-19T03:47:51.225Z,8.40
2023-02-19T03:50:43.557Z,8.39
2023-02-19T03:53:20.757Z,8.41
2023-02-19T03:56:08.522Z,8.43
2023-02-19T03:58:47.295Z,8.47
2023-02-19T04:01:22.028Z,8.49
2023-02-19T04:03:59.974Z,8.50
2023-02-19T04:06:30.179Z,8.52
2023-02-19T04:09:01.428Z,8.54
2023-02-19T04:11:30.891Z,8.54
2023-02-19T04:14:06.711Z,8.55
2023-02-19T04:16:37.296Z,8.57
2023-02-19T04:19:08.892Z,8.58
2023-02-19T04:21:38.106Z,8.58
2023-02-19T04:24:11.168Z,8.59
2023-02-19T04:26:38.325Z,8.61
2023-02-19T04:29:05.057Z,8.61
2023-02-19T04:31:35.543Z,8.61
2023-02-19T04:34:04.021Z,8.62
2023-02-19T04:36:32.258Z,8.61
2023-02-19T04:38:59.336Z,8.61
2023-02-19T04:41:26.344Z,8.61
2023-02-19T04:43:53.081Z,8.61
2023-02-19T04:46:19.906Z,8.58
2023-02-19T04:48:46.720Z,8.57
2023-02-19T04:51:13.666Z,8.56
2023-02-19T04:53:40.389Z,8.57
2023-02-19T04:56:13.045Z,8.55
2023-02-19T04:58:41.169Z,8.52
2023-02-19T05:01:09.487Z,8.51
2023-02-19T05:03:37.499Z,8.50
2023-02-19T05:06:05.900Z,8.44
2023-02-19T05:08:32.992Z,8.44
2023-02-19T05:11:01.233Z,8.43
2023-02-19T05:13:29.008Z,8.47
2023-02-19T05:16:01.695Z,8.47
2023-02-19T05:18:29.861Z,8.48
2023-02-19T05:20:58.897Z,8.49
2023-02-19T05:23:27.281Z,8.50
2023-02-19T05:25:54.553Z,8.51
2023-02-19T05:28:28.629Z,8.53
2023-02-19T05:30:57.740Z,8.52
2023-02-19T05:33:26.462Z,8.54
2023-02-19T05:35:55.588Z,8.52
2023-02-19T05:38:23.456Z,8.50
2023-02-19T05:40:51.053Z,8.43
2023-02-19T05:43:18.168Z,8.34
2023-02-19T05:45:44.909Z,8.25
2023-02-19T05:48:12.840Z,8.17
2023-02-19T05:50:40.102Z,8.02
2023-02-19T05:53:06.860Z,7.93
2023-02-19T05:55:36.682Z,7.81
2023-02-19T05:58:03.961Z,7.70
2023-02-19T06:00:32.934Z,7.66
2023-02-19T06:02:59.891Z,7.61
2023-02-19T06:05:26.743Z,7.60
2023-02-19T06:07:53.597Z,7.54
2023-02-19T06:10:20.421Z,7.50
2023-02-19T06:12:47.221Z,7.36
2023-02-19T06:15:13.931Z,7.37
2023-02-19T06:17:40.709Z,7.32
2023-02-19T06:20:08.218Z,7.30
2023-02-19T06:22:34.973Z,7.24
2023-02-19T06:25:01.713Z,7.20
2023-02-19T06:27:28.608Z,7.18
2023-02-19T06:29:55.399Z,7.20
2023-02-19T06:32:22.418Z,7.20
2023-02-19T06:34:49.183Z,7.20
2023-02-19T06:37:15.926Z,7.21
2023-02-19T06:39:43.889Z,7.23
2023-02-19T06:42:10.725Z,7.33
2023-02-19T06:44:37.657Z,7.39
2023-02-19T06:47:04.426Z,7.49
2023-02-19T06:49:31.169Z,7.57
2023-02-19T06:51:59.315Z,7.62
2023-02-19T06:54:26.400Z,7.67
2023-02-19T06:56:53.298Z,7.67
2023-02-19T06:59:20.146Z,7.69
2023-02-19T07:01:46.938Z,7.69
2023-02-19T07:04:14.013Z,7.68
2023-02-19T07:06:40.819Z,7.68
2023-02-19T07:09:08.778Z,7.67
2023-02-19T07:11:38.030Z,7.66
2023-02-19T07:14:10.212Z,7.69
2023-02-19T07:16:37.163Z,7.71
2023-02-19T07:19:04.151Z,7.71
2023-02-19T07:21:30.961Z,7.74
2023-02-19T07:23:58.181Z,7.73
2023-02-19T07:26:25.677Z,7.75
2023-02-19T07:28:52.781Z,7.79
2023-02-19T07:31:21.608Z,7.82
2023-02-19T07:33:48.891Z,7.84
2023-02-19T07:36:17.948Z,7.88
2023-02-19T07:38:45.265Z,7.90
2023-02-19T07:41:12.545Z,7.95
2023-02-19T07:43:40.381Z,7.97
2023-02-19T07:46:13.169Z,8.00
2023-02-19T07:48:41.861Z,8.01
2023-02-19T07:51:12.847Z,8.04
2023-02-19T07:53:39.803Z,8.06
2023-02-19T07:56:08.313Z,8.07
2023-02-19T07:58:35.458Z,8.10
2023-02-19T08:01:08.521Z,8.12
2023-02-19T08:03:36.558Z,8.15
2023-02-19T08:06:04.125Z,8.16
2023-02-19T08:08:30.908Z,8.19
2023-02-19T08:11:20.727Z,8.23
2023-02-19T08:13:51.962Z,8.25
2023-02-19T08:16:33.049Z,8.30
2023-02-19T08:19:04.119Z,8.37
2023-02-19T08:21:32.610Z,8.42
2023-02-19T08:24:00.866Z,8.46
2023-02-19T08:26:27.624Z,8.49
2023-02-19T08:28:54.444Z,8.52
2023-02-19T08:31:21.280Z,8.57
2023-02-19T08:33:48.098Z,8.60
2023-02-19T08:36:14.988Z,8.62
2023-02-19T08:38:41.772Z,8.71
2023-02-19T08:41:11.072Z,8.77
2023-02-19T08:43:38.922Z,8.82
2023-02-19T08:46:07.211Z,8.84
2023-02-19T08:48:34.058Z,8.87
2023-02-19T08:51:04.841Z,8.90
2023-02-19T08:53:32.934Z,8.92
2023-02-19T08:56:04.210Z,8.94
2023-02-19T08:58:32.939Z,9.00
2023-02-19T09:00:59.725Z,9.16
2023-02-19T09:03:26.533Z,9.35
2023-02-19T09:05:53.353Z,9.58
2023-02-19T09:08:20.085Z,9.84
2023-02-19T09:10:58.225Z,9.99
2023-02-19T09:13:25.023Z,10.21
2023-02-19T09:15:51.792Z,10.33
2023-02-19T09:18:18.619Z,10.47
2023-02-19T09:20:45.360Z,10.52
2023-02-19T09:23:12.080Z,10.57
2023-02-19T09:25:38.845Z,10.46
2023-02-19T09:28:05.596Z,10.56
2023-02-19T09:30:32.372Z,10.51
2023-02-19T09:32:59.203Z,10.49
2023-02-19T09:35:25.964Z,10.43
2023-02-19T09:37:52.743Z,10.38
2023-02-19T09:40:21.925Z,10.34
2023-02-19T09:42:50.995Z,10.33
2023-02-19T09:45:24.353Z,10.29
2023-02-19T09:47:55.616Z,10.33
2023-02-19T09:50:32.442Z,10.39
2023-02-19T09:53:03.983Z,10.45
2023-02-19T09:55:40.947Z,10.38
2023-02-19T09:58:30.008Z,10.47
2023-02-19T10:00:59.014Z,10.50
2023-02-19T10:03:35.030Z,10.56
2023-02-19T10:06:08.215Z,10.56
2023-02-19T10:08:37.965Z,10.62
2023-02-19T10:11:06.631Z,10.64
2023-02-19T10:13:42.228Z,10.59
2023-02-19T10:16:16.397Z,10.67
2023-02-19T10:18:45.191Z,10.70
2023-02-19T10:21:17.554Z,10.73
2023-02-19T10:23:44.592Z,10.80
2023-02-19T10:26:11.344Z,10.79
2023-02-19T10:28:38.279Z,10.79
2023-02-19T10:31:16.171Z,10.80
2023-02-19T10:34:01.241Z,10.83
2023-02-19T10:36:41.137Z,10.89
2023-02-19T10:39:38.433Z,10.90
2023-02-19T10:42:05.489Z,11.04
2023-02-19T10:44:42.728Z,11.06
2023-02-19T10:47:17.516Z,11.11
2023-02-19T10:49:46.545Z,11.20
2023-02-19T10:52:26.828Z,11.19
2023-02-19T10:54:57.732Z,11.24
